Bethany, Ohio
Current Conditions -  °F | °C
As of 9:35 PM on Wednesday 22 Oct 2014 (Local Time) from KMWO Reporting Station
Overcast Overcast  
Wind Chill: 50°   Ceiling: 2300
Heat Index: 50°   Visibility: 10mi
Dew Point: 40°   Wind: 5mph
Humidity: 68%   Direction: 20°NNE
Pressure: 30.3"   Gusts: NA
Location:  39.5538°N, 84.4567°W
Report Text: KMWO 230135Z AUTO 02004KT 10SM OVC023 10/05 A3030 RMK AO2 T01010045
Loading
Personal Weather Stations






























Interactive Weather Map
Tropical Storm Tracking
New forecast layout! Learn more

10-Day Weather Forecast

Advertisements
Track Severe Weather on mobile